createdAt,value
2018-12-10T00:02:04.857Z,86.74
2018-12-10T00:04:43.524Z,86.94
2018-12-10T00:07:21.113Z,84.96
2018-12-10T00:09:50.323Z,84.91
2018-12-10T00:12:18.624Z,85.12
2018-12-10T00:14:46.916Z,85.28
2018-12-10T00:17:15.209Z,85.27
2018-12-10T00:20:05.045Z,86.74
2018-12-10T00:22:42.032Z,85.66
2018-12-10T00:25:10.369Z,86.21
2018-12-10T00:27:48.095Z,86.48
2018-12-10T00:30:29.291Z,84.23
2018-12-10T00:32:57.759Z,86.18
2018-12-10T00:35:26.208Z,85.30
2018-12-10T00:38:10.796Z,86.21
2018-12-10T00:40:39.089Z,86.46
2018-12-10T00:43:07.487Z,88.34
2018-12-10T00:45:35.834Z,88.22
2018-12-10T00:48:04.180Z,88.36
2018-12-10T00:50:32.551Z,87.16
2018-12-10T00:53:00.882Z,86.89
2018-12-10T00:55:29.177Z,85.62
2018-12-10T00:58:12.372Z,84.55
2018-12-10T01:00:48.424Z,84.90
2018-12-10T01:03:19.907Z,84.65
2018-12-10T01:05:48.278Z,84.20
2018-12-10T01:08:37.315Z,84.24
2018-12-10T01:11:22.212Z,85.61
2018-12-10T01:13:50.489Z,85.55
2018-12-10T01:16:18.788Z,86.03
2018-12-10T01:18:54.236Z,85.35
2018-12-10T01:21:32.722Z,86.69
2018-12-10T01:24:00.938Z,86.76
2018-12-10T01:26:42.228Z,86.90
2018-12-10T01:29:27.205Z,86.64
2018-12-10T01:31:55.503Z,86.61
2018-12-10T01:34:23.848Z,87.15
2018-12-10T01:36:52.235Z,88.68
2018-12-10T01:39:20.474Z,89.64
2018-12-10T01:42:03.277Z,89.96
2018-12-10T01:44:31.555Z,87.33
2018-12-10T01:46:59.820Z,89.65
2018-12-10T01:49:35.960Z,89.37
2018-12-10T01:52:16.663Z,88.18
2018-12-10T01:54:45.124Z,87.57
2018-12-10T01:57:23.893Z,88.13
2018-12-10T02:00:03.884Z,88.17
2018-12-10T02:02:32.432Z,89.01
2018-12-10T02:05:14.983Z,88.90
2018-12-10T02:07:43.303Z,88.73
2018-12-10T02:10:11.652Z,90.43
2018-12-10T02:12:40.010Z,90.33
2018-12-10T02:15:18.885Z,89.18
2018-12-10T02:17:50.860Z,87.79
2018-12-10T02:20:27.297Z,88.67
2018-12-10T02:22:55.709Z,88.74
2018-12-10T02:25:23.904Z,90.55
2018-12-10T02:28:00.389Z,90.14
2018-12-10T02:30:36.797Z,91.63
2018-12-10T02:33:09.362Z,90.54
2018-12-10T02:35:37.708Z,89.95
2018-12-10T02:38:06.079Z,88.07
2018-12-10T02:40:34.640Z,89.42
2018-12-10T02:43:03.232Z,90.54
2018-12-10T02:45:43.916Z,90.13
2018-12-10T02:48:22.378Z,88.11
2018-12-10T02:50:58.111Z,91.40
2018-12-10T02:53:36.730Z,88.43
2018-12-10T02:56:19.853Z,88.07
2018-12-10T02:59:08.953Z,88.22
2018-12-10T03:04:33.153Z,86.44
2018-12-10T03:07:22.149Z,86.58
2018-12-10T03:09:50.450Z,87.38
2018-12-10T03:12:18.908Z,88.39
2018-12-10T03:15:00.701Z,87.26
2018-12-10T03:17:30.295Z,87.97
2018-12-10T03:19:58.516Z,86.28
2018-12-10T03:22:27.036Z,85.96
2018-12-10T03:24:55.356Z,86.14
2018-12-10T03:27:23.688Z,86.23
2018-12-10T03:29:52.157Z,87.57
2018-12-10T03:32:46.373Z,85.79
2018-12-10T03:35:23.480Z,87.84
2018-12-10T03:38:04.252Z,86.20
2018-12-10T03:40:32.602Z,86.58
2018-12-10T03:43:00.933Z,88.45
2018-12-10T03:45:50.276Z,88.25
2018-12-10T03:51:27.833Z,87.54
2018-12-10T03:54:10.623Z,90.50
2018-12-10T03:56:38.905Z,88.02
2018-12-10T03:59:07.225Z,88.08
2018-12-10T04:01:35.740Z,88.74
2018-12-10T04:04:25.295Z,90.22
2018-12-10T04:06:54.163Z,87.89
2018-12-10T04:09:22.483Z,90.97
2018-12-10T04:12:03.286Z,88.60
2018-12-10T04:14:52.838Z,87.04
2018-12-10T04:17:41.356Z,87.91
2018-12-10T04:20:22.156Z,87.41
2018-12-10T04:23:07.184Z,90.77
2018-12-10T04:25:42.587Z,91.01
2018-12-10T04:28:16.555Z,90.13
2018-12-10T04:30:58.287Z,89.99
2018-12-10T04:33:34.373Z,90.44
2018-12-10T04:36:17.629Z,89.84
2018-12-10T04:39:01.495Z,90.95
2018-12-10T04:41:51.126Z,88.26
2018-12-10T04:44:40.574Z,88.99
2018-12-10T04:47:16.708Z,86.04
2018-12-10T04:50:05.679Z,85.60
2018-12-10T04:52:50.662Z,86.06
2018-12-10T04:55:26.845Z,87.03
2018-12-10T04:57:55.447Z,87.45
2018-12-10T05:00:40.606Z,87.22
2018-12-10T05:03:25.567Z,87.28
2018-12-10T05:06:10.260Z,86.15
2018-12-10T05:08:55.120Z,86.24
2018-12-10T05:11:43.891Z,85.67
2018-12-10T05:14:15.719Z,85.61
2018-12-10T05:17:04.998Z,87.26
2018-12-10T05:19:50.466Z,87.70
2018-12-10T05:22:26.499Z,86.81
2018-12-10T05:25:20.662Z,86.07
2018-12-10T05:28:02.244Z,85.69
2018-12-10T05:30:45.851Z,84.58
2018-12-10T05:33:22.100Z,85.55
2018-12-10T05:36:11.459Z,85.97
2018-12-10T05:39:00.968Z,87.74
2018-12-10T05:41:40.442Z,88.16
2018-12-10T05:44:38.377Z,87.19
2018-12-10T05:47:23.926Z,86.97
2018-12-10T05:49:59.857Z,86.85
2018-12-10T05:52:44.702Z,87.98
2018-12-10T05:55:21.271Z,88.51
2018-12-10T05:58:04.425Z,89.01
2018-12-10T06:00:54.124Z,89.70
2018-12-10T06:03:36.866Z,90.10
2018-12-10T06:06:21.500Z,89.66
2018-12-10T06:09:10.536Z,90.32
2018-12-10T06:12:00.329Z,90.83
2018-12-10T06:14:50.035Z,90.14
2018-12-10T06:17:32.861Z,88.91
2018-12-10T06:20:22.205Z,89.37
2018-12-10T06:23:12.052Z,90.00
2018-12-10T06:25:48.656Z,92.28
2018-12-10T06:31:17.482Z,90.47
2018-12-10T06:34:00.611Z,91.44
2018-12-10T06:36:42.464Z,91.49
2018-12-10T06:39:31.433Z,92.82
2018-12-10T06:42:08.295Z,92.57
2018-12-10T06:44:37.409Z,92.59
2018-12-10T06:47:06.321Z,93.36
2018-12-10T06:49:35.046Z,95.30
2018-12-10T06:52:04.062Z,96.52
2018-12-10T06:54:32.466Z,97.18
2018-12-10T06:57:00.961Z,95.70
2018-12-10T06:59:29.317Z,96.15
2018-12-10T07:01:57.869Z,95.08
2018-12-10T07:04:26.293Z,95.65
2018-12-10T07:06:54.817Z,96.10
2018-12-10T07:09:23.361Z,96.57
2018-12-10T07:11:52.328Z,96.80
2018-12-10T07:14:21.418Z,97.53
2018-12-10T07:16:50.024Z,98.57
2018-12-10T07:19:20.218Z,97.95
2018-12-10T07:21:48.877Z,97.56
2018-12-10T07:24:17.305Z,98.14
2018-12-10T07:26:45.775Z,100.00
2018-12-10T07:29:14.421Z,100.00
2018-12-10T07:31:42.793Z,100.00
2018-12-10T07:34:11.336Z,100.00
2018-12-10T07:36:39.740Z,100.00
2018-12-10T07:39:08.695Z,100.00
2018-12-10T07:41:37.142Z,100.00
2018-12-10T07:44:05.514Z,100.00
2018-12-10T07:46:34.292Z,99.83
2018-12-10T07:49:02.845Z,99.68
2018-12-10T07:51:31.384Z,100.00
2018-12-10T07:54:00.287Z,100.00
2018-12-10T07:56:29.124Z,100.00
2018-12-10T07:58:57.847Z,100.00
2018-12-10T08:01:26.621Z,100.00
2018-12-10T08:03:55.374Z,100.00
2018-12-10T08:06:23.970Z,100.00
2018-12-10T08:08:52.686Z,100.00
2018-12-10T08:11:21.372Z,100.00
2018-12-10T08:13:49.905Z,100.00
2018-12-10T08:16:18.417Z,100.00
2018-12-10T08:18:47.203Z,100.00
2018-12-10T08:21:17.561Z,100.00
2018-12-10T08:23:46.078Z,100.00
2018-12-10T08:26:15.315Z,100.00
2018-12-10T08:34:28.058Z,100.00
2018-12-10T08:40:07.741Z,100.00
2018-12-10T08:42:36.371Z,100.00
2018-12-10T08:45:06.166Z,100.00
2018-12-10T08:47:34.848Z,100.00
2018-12-10T08:50:03.786Z,100.00
2018-12-10T08:52:32.843Z,100.00
2018-12-10T08:55:01.325Z,100.00
2018-12-10T08:57:30.153Z,100.00
2018-12-10T08:59:59.436Z,100.00
2018-12-10T09:02:31.313Z,99.64
2018-12-10T09:05:01.006Z,97.77
2018-12-10T09:07:29.410Z,96.12
2018-12-10T09:09:57.876Z,96.80
2018-12-10T09:12:26.669Z,98.21
2018-12-10T09:14:55.210Z,98.19
2018-12-10T09:17:23.801Z,99.01
2018-12-10T09:19:52.231Z,99.62
2018-12-10T09:22:20.983Z,99.44
2018-12-10T09:24:49.474Z,100.00
2018-12-10T09:27:27.380Z,98.27
2018-12-10T09:29:56.004Z,98.22
2018-12-10T09:32:24.555Z,98.69
2018-12-10T09:34:53.172Z,99.01
2018-12-10T09:37:21.894Z,97.99
2018-12-10T09:39:51.696Z,96.94
2018-12-10T09:42:20.895Z,95.21
2018-12-10T09:44:49.526Z,94.71
2018-12-10T09:47:18.075Z,95.46
2018-12-10T09:49:47.847Z,95.25
2018-12-10T09:52:16.740Z,95.57
2018-12-10T09:54:45.649Z,96.03
2018-12-10T09:57:14.457Z,96.90
2018-12-10T09:59:43.259Z,97.53
2018-12-10T10:02:12.836Z,97.78
2018-12-10T10:04:41.443Z,97.19
2018-12-10T10:07:10.021Z,97.64
2018-12-10T10:09:38.439Z,96.91
2018-12-10T10:12:06.964Z,97.61
2018-12-10T10:14:35.407Z,96.99
2018-12-10T10:17:04.393Z,96.50
2018-12-10T10:19:33.055Z,96.75
2018-12-10T10:22:01.571Z,97.08
2018-12-10T10:24:30.198Z,98.74
2018-12-10T10:26:58.862Z,99.29
2018-12-10T10:29:27.592Z,98.12
2018-12-10T10:31:56.128Z,98.04
2018-12-10T10:34:24.532Z,97.16
2018-12-10T10:36:53.125Z,97.16
2018-12-10T10:39:22.061Z,96.73
2018-12-10T10:41:57.426Z,94.73
2018-12-10T10:44:26.373Z,93.53
2018-12-10T10:46:55.075Z,92.72
2018-12-10T10:49:23.703Z,94.04
2018-12-10T10:51:52.319Z,94.93
2018-12-10T10:54:20.771Z,95.76
2018-12-10T10:56:49.304Z,96.41
2018-12-10T10:59:17.855Z,95.87
2018-12-10T11:01:51.661Z,95.27
2018-12-10T11:04:20.560Z,95.78
2018-12-10T11:06:49.503Z,93.16
2018-12-10T11:09:18.275Z,92.00
2018-12-10T11:11:47.059Z,94.27
2018-12-10T11:14:15.827Z,95.38
2018-12-10T11:16:44.502Z,95.84
2018-12-10T11:19:16.267Z,94.39
2018-12-10T11:21:44.829Z,96.02
2018-12-10T11:24:13.207Z,95.43
2018-12-10T11:26:41.644Z,94.61
2018-12-10T11:29:10.629Z,94.72
2018-12-10T11:31:39.462Z,92.67
2018-12-10T11:34:08.124Z,93.02
2018-12-10T11:36:36.967Z,93.79
2018-12-10T11:39:06.887Z,91.47
2018-12-10T11:41:35.740Z,92.15
2018-12-10T11:44:04.270Z,90.06
2018-12-10T11:46:33.367Z,92.24
2018-12-10T11:49:02.127Z,93.08
2018-12-10T11:51:30.544Z,92.16
2018-12-10T11:53:58.843Z,92.33
2018-12-10T11:56:27.083Z,92.74
2018-12-10T11:58:55.425Z,91.41
2018-12-10T12:01:23.785Z,92.79
2018-12-10T12:03:52.174Z,92.70
2018-12-10T12:06:20.605Z,94.47
2018-12-10T12:08:48.894Z,91.69
2018-12-10T12:11:17.385Z,91.50
2018-12-10T12:13:46.062Z,90.84
2018-12-10T12:16:15.013Z,92.50
2018-12-10T12:18:43.196Z,93.11
2018-12-10T12:21:11.383Z,94.96
2018-12-10T12:23:40.232Z,95.26
2018-12-10T12:26:08.584Z,96.44
2018-12-10T12:28:37.152Z,96.90
2018-12-10T12:31:05.420Z,97.35
2018-12-10T12:33:33.760Z,95.76
2018-12-10T12:36:02.066Z,95.87
2018-12-10T12:38:30.297Z,95.99
2018-12-10T12:40:58.768Z,96.56
2018-12-10T12:43:27.013Z,96.59
2018-12-10T12:45:55.527Z,96.53
2018-12-10T12:48:23.855Z,96.78
2018-12-10T12:50:52.541Z,96.66
2018-12-10T12:53:21.075Z,96.90
2018-12-10T12:55:49.647Z,97.68
2018-12-10T12:58:18.022Z,98.46
2018-12-10T13:00:46.682Z,97.11
2018-12-10T13:03:15.093Z,96.97
2018-12-10T13:05:43.486Z,96.46
2018-12-10T13:08:12.522Z,96.73
2018-12-10T13:10:40.831Z,97.93
2018-12-10T13:13:09.451Z,97.75
2018-12-10T13:15:37.931Z,95.18
2018-12-10T13:18:06.501Z,95.66
2018-12-10T13:20:35.730Z,94.69
2018-12-10T13:23:04.089Z,94.49
2018-12-10T13:25:32.461Z,95.83
2018-12-10T13:28:00.921Z,95.41
2018-12-10T13:30:29.347Z,94.03
2018-12-10T13:32:57.871Z,92.69
2018-12-10T13:35:26.393Z,92.60
2018-12-10T13:37:55.647Z,93.54
2018-12-10T13:40:24.533Z,91.91
2018-12-10T13:42:53.182Z,92.98
2018-12-10T13:45:22.205Z,95.31
2018-12-10T13:47:50.857Z,96.30
2018-12-10T13:50:19.622Z,95.53
2018-12-10T13:52:48.560Z,95.61
2018-12-10T13:55:16.953Z,95.84
2018-12-10T13:57:45.396Z,95.48
2018-12-10T14:00:14.287Z,96.17
2018-12-10T14:02:42.747Z,95.49
2018-12-10T14:05:15.765Z,95.94
2018-12-10T14:07:48.124Z,96.14
2018-12-10T14:10:15.706Z,96.60
2018-12-10T14:12:48.939Z,96.83
2018-12-10T14:15:18.921Z,97.27
2018-12-10T14:17:47.314Z,97.29
2018-12-10T14:20:21.038Z,96.96
2018-12-10T14:22:49.485Z,97.41
2018-12-10T14:25:24.365Z,95.37
2018-12-10T14:27:53.088Z,95.10
2018-12-10T14:30:22.669Z,95.14
2018-12-10T14:32:51.455Z,95.26
2018-12-10T14:35:19.862Z,96.38
2018-12-10T14:37:48.369Z,96.81
2018-12-10T14:40:16.936Z,96.02
2018-12-10T14:42:54.189Z,95.58
2018-12-10T14:45:22.811Z,96.86
2018-12-10T14:47:53.983Z,96.35
2018-12-10T14:50:22.266Z,96.89
2018-12-10T14:52:50.948Z,96.67
2018-12-10T14:55:19.411Z,97.21
2018-12-10T14:57:47.903Z,97.92
2018-12-10T15:00:16.427Z,97.55
2018-12-10T15:02:44.856Z,98.27
2018-12-10T15:05:13.189Z,97.88
2018-12-10T15:07:41.524Z,97.81
2018-12-10T15:10:11.005Z,99.31
2018-12-10T15:12:39.693Z,99.34
2018-12-10T15:15:09.700Z,100.00
2018-12-10T15:17:38.711Z,100.00
2018-12-10T15:20:12.050Z,100.00
2018-12-10T15:22:40.474Z,99.74
2018-12-10T15:25:09.756Z,99.29
2018-12-10T15:27:38.550Z,98.08
2018-12-10T15:30:10.418Z,96.31
2018-12-10T15:32:39.252Z,95.17
2018-12-10T15:35:22.563Z,94.11
2018-12-10T15:37:51.755Z,93.51
2018-12-10T15:40:20.225Z,95.82
2018-12-10T15:42:48.780Z,94.87
2018-12-10T15:45:17.192Z,93.77
2018-12-10T15:47:45.862Z,92.50
2018-12-10T15:50:14.251Z,91.64
2018-12-10T15:52:42.641Z,92.29
2018-12-10T15:55:11.090Z,92.74
2018-12-10T15:57:39.601Z,93.25
2018-12-10T16:00:08.739Z,91.95
2018-12-10T16:02:37.057Z,92.10
2018-12-10T16:05:05.846Z,91.14
2018-12-10T16:07:34.259Z,92.21
2018-12-10T16:10:02.785Z,92.87
2018-12-10T16:12:31.543Z,93.11
2018-12-10T16:15:00.028Z,93.50
2018-12-10T16:17:28.561Z,93.96
2018-12-10T16:19:56.898Z,94.27
2018-12-10T16:22:25.433Z,94.36
2018-12-10T16:24:53.909Z,94.33
2018-12-10T16:27:22.719Z,94.90
2018-12-10T16:29:51.265Z,94.25
2018-12-10T16:32:20.962Z,93.56
2018-12-10T16:34:49.464Z,92.98
2018-12-10T16:37:18.551Z,92.53
2018-12-10T16:39:47.273Z,92.15
2018-12-10T16:42:16.601Z,92.10
2018-12-10T16:44:45.098Z,92.54
2018-12-10T16:47:13.693Z,91.86
2018-12-10T16:49:42.113Z,92.06
2018-12-10T16:52:10.523Z,91.62
2018-12-10T16:54:39.905Z,91.01
2018-12-10T16:57:08.363Z,91.35
2018-12-10T16:59:36.616Z,90.76
2018-12-10T17:02:05.097Z,88.41
2018-12-10T17:04:33.545Z,88.98
2018-12-10T17:07:01.953Z,89.00
2018-12-10T17:09:30.475Z,89.51
2018-12-10T17:11:59.025Z,89.01
2018-12-10T17:14:28.427Z,88.94
2018-12-10T17:16:56.747Z,88.36
2018-12-10T17:19:25.613Z,87.70
2018-12-10T17:21:54.131Z,86.43
2018-12-10T17:24:22.758Z,85.67
2018-12-10T17:26:51.459Z,85.50
2018-12-10T17:29:20.162Z,85.51
2018-12-10T17:31:48.558Z,84.54
2018-12-10T17:34:16.935Z,85.25
2018-12-10T17:36:45.340Z,84.39
2018-12-10T17:39:13.722Z,86.11
2018-12-10T17:41:42.692Z,84.53
2018-12-10T17:44:11.069Z,83.48
2018-12-10T17:46:39.369Z,84.40
2018-12-10T17:49:07.726Z,82.01
2018-12-10T17:51:36.293Z,81.93
2018-12-10T17:54:05.099Z,79.72
2018-12-10T17:56:34.399Z,78.82
2018-12-10T17:59:03.245Z,77.85
2018-12-10T18:01:32.003Z,77.69
2018-12-10T18:04:03.272Z,79.35
2018-12-10T18:06:31.600Z,78.78
2018-12-10T18:09:00.095Z,78.60
2018-12-10T18:11:31.577Z,79.39
2018-12-10T18:13:59.920Z,79.32
2018-12-10T18:16:28.185Z,79.58
2018-12-10T18:18:56.691Z,81.78
2018-12-10T18:21:25.071Z,81.95
2018-12-10T18:23:53.473Z,83.05
2018-12-10T18:26:21.864Z,81.72
2018-12-10T18:28:50.352Z,82.26
2018-12-10T18:31:18.700Z,82.32
2018-12-10T18:33:47.314Z,82.92
2018-12-10T18:36:15.996Z,82.29
2018-12-10T18:38:44.864Z,81.06
2018-12-10T18:41:13.348Z,79.84
2018-12-10T18:43:41.867Z,79.92
2018-12-10T18:46:10.384Z,79.81
2018-12-10T18:48:38.823Z,80.30
2018-12-10T18:51:08.067Z,79.91
2018-12-10T18:53:36.507Z,78.99
2018-12-10T18:56:05.046Z,79.15
2018-12-10T18:58:33.697Z,79.18
2018-12-10T19:01:02.080Z,79.93
2018-12-10T19:03:30.507Z,80.12
2018-12-10T19:05:59.028Z,79.45
2018-12-10T19:08:27.683Z,79.53
2018-12-10T19:10:56.242Z,79.20
2018-12-10T19:13:25.042Z,77.13
2018-12-10T19:15:54.189Z,77.63
2018-12-10T19:18:22.466Z,77.32
2018-12-10T19:20:51.002Z,77.56
2018-12-10T19:23:19.414Z,77.04
2018-12-10T19:25:47.984Z,76.13
2018-12-10T19:28:16.358Z,77.18
2018-12-10T19:30:45.389Z,77.19
2018-12-10T19:33:14.287Z,77.04
2018-12-10T19:35:42.712Z,77.26
2018-12-10T19:38:11.158Z,78.02
2018-12-10T19:40:40.274Z,77.99
2018-12-10T19:43:08.777Z,76.58
2018-12-10T19:45:37.086Z,76.15
2018-12-10T19:48:05.404Z,76.59
2018-12-10T19:50:34.068Z,78.73
2018-12-10T19:53:02.881Z,77.56
2018-12-10T19:55:31.728Z,78.06
2018-12-10T19:58:00.552Z,77.11
2018-12-10T20:00:29.036Z,77.03
2018-12-10T20:02:58.290Z,77.35
2018-12-10T20:05:32.397Z,77.06
2018-12-10T20:08:00.733Z,75.96
2018-12-10T20:10:29.102Z,76.30
2018-12-10T20:12:57.481Z,77.14
2018-12-10T20:15:25.814Z,76.61
2018-12-10T20:17:54.303Z,77.01
2018-12-10T20:20:22.743Z,76.78
2018-12-10T20:22:50.992Z,76.49
2018-12-10T20:25:19.502Z,77.34
2018-12-10T20:27:48.128Z,76.38
2018-12-10T20:30:16.579Z,77.21
2018-12-10T20:32:45.121Z,76.42
2018-12-10T20:35:13.533Z,77.41
2018-12-10T20:37:41.957Z,76.33
2018-12-10T20:40:10.753Z,76.45
2018-12-10T20:42:39.443Z,76.76
2018-12-10T20:45:09.522Z,76.14
2018-12-10T20:47:38.197Z,76.51
2018-12-10T20:50:07.517Z,76.05
2018-12-10T20:52:36.091Z,76.82
2018-12-10T20:55:05.496Z,76.60
2018-12-10T20:57:33.805Z,76.02
2018-12-10T21:00:02.167Z,75.53
2018-12-10T21:02:31.128Z,74.68
2018-12-10T21:04:59.687Z,76.42
2018-12-10T21:07:28.235Z,74.27
2018-12-10T21:09:56.920Z,74.97
2018-12-10T21:12:25.481Z,74.79
2018-12-10T21:15:00.212Z,74.55
2018-12-10T21:17:24.999Z,74.26
2018-12-10T21:19:53.280Z,74.84
2018-12-10T21:22:21.775Z,74.82
2018-12-10T21:24:50.180Z,74.93
2018-12-10T21:27:18.786Z,73.81
2018-12-10T21:29:47.244Z,74.22
2018-12-10T21:32:15.682Z,73.04
2018-12-10T21:34:44.110Z,73.17
2018-12-10T21:37:12.436Z,73.10
2018-12-10T21:39:41.376Z,74.50
2018-12-10T21:42:09.675Z,71.45
2018-12-10T21:44:38.060Z,71.76
2018-12-10T21:47:06.959Z,70.85
2018-12-10T21:49:36.196Z,72.05
2018-12-10T21:52:04.694Z,71.89
2018-12-10T21:54:32.980Z,71.92
2018-12-10T21:57:01.701Z,71.55
2018-12-10T21:59:30.752Z,71.43
2018-12-10T22:01:59.188Z,70.60
2018-12-10T22:04:27.745Z,70.80
2018-12-10T22:06:56.000Z,70.85
2018-12-10T22:09:24.320Z,71.67
2018-12-10T22:11:52.580Z,70.99
2018-12-10T22:14:21.066Z,70.56
2018-12-10T22:16:49.479Z,71.16
2018-12-10T22:19:17.762Z,71.72
2018-12-10T22:21:46.280Z,71.18
2018-12-10T22:24:14.616Z,71.46
2018-12-10T22:26:43.056Z,71.23
2018-12-10T22:29:11.545Z,69.58
2018-12-10T22:31:40.061Z,70.17
2018-12-10T22:34:08.481Z,70.16
2018-12-10T22:36:36.968Z,69.00
2018-12-10T22:39:07.398Z,69.36
2018-12-10T22:41:35.697Z,69.87
2018-12-10T22:44:04.362Z,68.04
2018-12-10T22:46:32.930Z,69.28
2018-12-10T22:49:01.288Z,69.32
2018-12-10T22:51:29.914Z,69.22
2018-12-10T22:53:58.321Z,68.20
2018-12-10T22:56:27.185Z,67.15
2018-12-10T22:58:55.679Z,67.78
2018-12-10T23:01:24.595Z,67.17
2018-12-10T23:03:53.004Z,67.10
2018-12-10T23:06:21.475Z,67.81
2018-12-10T23:08:50.029Z,70.34
2018-12-10T23:11:18.548Z,67.78
2018-12-10T23:13:47.361Z,68.99
2018-12-10T23:16:15.960Z,67.95
2018-12-10T23:18:44.811Z,68.03
2018-12-10T23:21:13.511Z,67.43
2018-12-10T23:23:42.215Z,67.55
2018-12-10T23:26:10.546Z,69.34
2018-12-10T23:28:38.741Z,69.15
2018-12-10T23:31:07.195Z,66.76
2018-12-10T23:33:35.752Z,67.64
2018-12-10T23:36:04.315Z,67.53
2018-12-10T23:38:32.695Z,68.30
2018-12-10T23:41:01.196Z,67.45
2018-12-10T23:43:29.468Z,66.55
2018-12-10T23:45:57.752Z,68.43
2018-12-10T23:48:26.098Z,69.17
2018-12-10T23:50:54.536Z,68.12
2018-12-10T23:53:22.832Z,66.89
2018-12-10T23:55:51.236Z,67.33
2018-12-10T23:58:19.702Z,67.09
